sensor_id;sensor_type;location;lat;lon;timestamp;temperature;humidity
33865;DHT22;20159;51.072;13.526;2022-12-08T00:01:57;5.00;91.20
33865;DHT22;20159;51.072;13.526;2022-12-08T00:04:23;5.00;91.20
33865;DHT22;20159;51.072;13.526;2022-12-08T00:06:48;5.00;91.20
33865;DHT22;20159;51.072;13.526;2022-12-08T00:09:36;5.00;91.20
33865;DHT22;20159;51.072;13.526;2022-12-08T00:16:58;5.00;91.10
33865;DHT22;20159;51.072;13.526;2022-12-08T00:19:25;5.00;91.00
33865;DHT22;20159;51.072;13.526;2022-12-08T00:21:51;5.00;91.00
33865;DHT22;20159;51.072;13.526;2022-12-08T00:24:18;7.20;91.50
33865;DHT22;20159;51.072;13.526;2022-12-08T00:26:44;5.00;91.00
33865;DHT22;20159;51.072;13.526;2022-12-08T00:29:09;5.00;91.00
33865;DHT22;20159;51.072;13.526;2022-12-08T00:31:35;5.00;91.00
33865;DHT22;20159;51.072;13.526;2022-12-08T00:34:01;5.00;91.00
33865;DHT22;20159;51.072;13.526;2022-12-08T00:36:27;5.00;91.00
33865;DHT22;20159;51.072;13.526;2022-12-08T00:38:53;5.00;91.00
33865;DHT22;20159;51.072;13.526;2022-12-08T00:41:20;4.90;91.00
33865;DHT22;20159;51.072;13.526;2022-12-08T00:44:08;4.90;91.00
33865;DHT22;20159;51.072;13.526;2022-12-08T00:46:35;4.90;91.00
33865;DHT22;20159;51.072;13.526;2022-12-08T00:49:00;4.90;91.10
33865;DHT22;20159;51.072;13.526;2022-12-08T00:51:26;4.80;91.10
33865;DHT22;20159;51.072;13.526;2022-12-08T00:53:52;4.80;91.10
33865;DHT22;20159;51.072;13.526;2022-12-08T00:56:17;4.80;91.20
33865;DHT22;20159;51.072;13.526;2022-12-08T00:58:43;4.80;91.20
33865;DHT22;20159;51.072;13.526;2022-12-08T01:01:09;4.80;91.20
33865;DHT22;20159;51.072;13.526;2022-12-08T01:03:35;4.80;91.10
33865;DHT22;20159;51.072;13.526;2022-12-08T01:06:05;4.80;91.10
33865;DHT22;20159;51.072;13.526;2022-12-08T01:08:30;4.80;91.10
33865;DHT22;20159;51.072;13.526;2022-12-08T01:11:01;4.80;91.10
33865;DHT22;20159;51.072;13.526;2022-12-08T01:13:27;4.80;91.20
33865;DHT22;20159;51.072;13.526;2022-12-08T01:15:52;4.70;91.20
33865;DHT22;20159;51.072;13.526;2022-12-08T01:18:18;4.70;91.20
33865;DHT22;20159;51.072;13.526;2022-12-08T01:20:43;4.70;91.30
33865;DHT22;20159;51.072;13.526;2022-12-08T01:23:09;4.70;91.30
33865;DHT22;20159;51.072;13.526;2022-12-08T01:25:34;4.70;91.40
33865;DHT22;20159;51.072;13.526;2022-12-08T01:28:00;4.70;91.40
33865;DHT22;20159;51.072;13.526;2022-12-08T01:30:25;4.70;91.40
33865;DHT22;20159;51.072;13.526;2022-12-08T01:32:51;4.60;91.40
33865;DHT22;20159;51.072;13.526;2022-12-08T01:35:16;4.60;91.50
33865;DHT22;20159;51.072;13.526;2022-12-08T01:37:42;4.60;91.50
33865;DHT22;20159;51.072;13.526;2022-12-08T01:40:08;4.60;91.50
33865;DHT22;20159;51.072;13.526;2022-12-08T01:42:33;4.60;91.60
33865;DHT22;20159;51.072;13.526;2022-12-08T01:45:06;4.60;91.60
33865;DHT22;20159;51.072;13.526;2022-12-08T01:47:41;4.50;91.60
33865;DHT22;20159;51.072;13.526;2022-12-08T01:50:12;4.60;91.60
33865;DHT22;20159;51.072;13.526;2022-12-08T01:52:47;4.50;91.60
33865;DHT22;20159;51.072;13.526;2022-12-08T01:55:23;4.50;91.60
33865;DHT22;20159;51.072;13.526;2022-12-08T01:57:53;4.50;91.60
33865;DHT22;20159;51.072;13.526;2022-12-08T02:00:21;4.50;91.60
33865;DHT22;20159;51.072;13.526;2022-12-08T02:02:57;4.50;91.50
33865;DHT22;20159;51.072;13.526;2022-12-08T02:05:26;4.40;91.50
33865;DHT22;20159;51.072;13.526;2022-12-08T02:07:53;4.40;91.50
33865;DHT22;20159;51.072;13.526;2022-12-08T02:10:22;4.30;91.50
33865;DHT22;20159;51.072;13.526;2022-12-08T02:12:49;4.30;91.60
33865;DHT22;20159;51.072;13.526;2022-12-08T02:15:16;4.30;91.60
33865;DHT22;20159;51.072;13.526;2022-12-08T02:26:16;4.20;91.80
33865;DHT22;20159;51.072;13.526;2022-12-08T02:34:43;4.10;92.10
33865;DHT22;20159;51.072;13.526;2022-12-08T02:37:32;4.20;92.20
33865;DHT22;20159;51.072;13.526;2022-12-08T02:40:07;4.20;92.30
33865;DHT22;20159;51.072;13.526;2022-12-08T02:42:53;4.20;92.20
33865;DHT22;20159;51.072;13.526;2022-12-08T02:47:45;4.20;92.20
33865;DHT22;20159;51.072;13.526;2022-12-08T02:50:11;4.30;92.20
33865;DHT22;20159;51.072;13.526;2022-12-08T02:52:39;4.30;92.20
33865;DHT22;20159;51.072;13.526;2022-12-08T02:55:09;7.60;92.90
33865;DHT22;20159;51.072;13.526;2022-12-08T03:00:56;4.40;92.20
33865;DHT22;20159;51.072;13.526;2022-12-08T03:06:17;4.40;92.00
33865;DHT22;20159;51.072;13.526;2022-12-08T03:09:02;4.40;92.00
33865;DHT22;20159;51.072;13.526;2022-12-08T03:11:37;4.50;92.00
33865;DHT22;20159;51.072;13.526;2022-12-08T03:14:06;4.50;91.90
33865;DHT22;20159;51.072;13.526;2022-12-08T03:16:36;4.50;91.90
33865;DHT22;20159;51.072;13.526;2022-12-08T03:21:38;4.60;91.90
33865;DHT22;20159;51.072;13.526;2022-12-08T03:24:06;4.60;91.90
33865;DHT22;20159;51.072;13.526;2022-12-08T03:26:45;4.60;91.80
33865;DHT22;20159;51.072;13.526;2022-12-08T03:29:11;4.60;91.80
33865;DHT22;20159;51.072;13.526;2022-12-08T03:31:40;4.60;91.80
33865;DHT22;20159;51.072;13.526;2022-12-08T03:34:08;4.60;91.80
33865;DHT22;20159;51.072;13.526;2022-12-08T03:36:35;4.60;91.80
33865;DHT22;20159;51.072;13.526;2022-12-08T03:39:01;4.60;91.80
33865;DHT22;20159;51.072;13.526;2022-12-08T03:41:26;4.60;91.70
33865;DHT22;20159;51.072;13.526;2022-12-08T03:43:54;4.70;91.80
33865;DHT22;20159;51.072;13.526;2022-12-08T03:46:22;4.70;91.80
33865;DHT22;20159;51.072;13.526;2022-12-08T03:48:48;4.70;91.80
33865;DHT22;20159;51.072;13.526;2022-12-08T03:51:14;4.70;91.80
33865;DHT22;20159;51.072;13.526;2022-12-08T03:53:40;4.80;91.80
33865;DHT22;20159;51.072;13.526;2022-12-08T03:56:30;4.80;91.70
33865;DHT22;20159;51.072;13.526;2022-12-08T03:58:56;4.80;91.70
33865;DHT22;20159;51.072;13.526;2022-12-08T04:01:22;4.80;91.70
33865;DHT22;20159;51.072;13.526;2022-12-08T04:03:48;4.90;91.70
33865;DHT22;20159;51.072;13.526;2022-12-08T04:06:13;4.90;91.90
33865;DHT22;20159;51.072;13.526;2022-12-08T04:08:39;4.90;91.80
33865;DHT22;20159;51.072;13.526;2022-12-08T04:11:05;4.90;91.80
33865;DHT22;20159;51.072;13.526;2022-12-08T04:13:35;5.00;91.90
33865;DHT22;20159;51.072;13.526;2022-12-08T04:16:01;4.90;91.80
33865;DHT22;20159;51.072;13.526;2022-12-08T04:18:27;4.90;91.80
33865;DHT22;20159;51.072;13.526;2022-12-08T04:20:53;5.00;91.90
33865;DHT22;20159;51.072;13.526;2022-12-08T04:23:18;5.00;91.90
33865;DHT22;20159;51.072;13.526;2022-12-08T04:25:44;5.00;91.90
33865;DHT22;20159;51.072;13.526;2022-12-08T04:28:10;5.00;91.90
33865;DHT22;20159;51.072;13.526;2022-12-08T04:30:36;4.90;91.90
33865;DHT22;20159;51.072;13.526;2022-12-08T04:33:01;4.90;91.90
33865;DHT22;20159;51.072;13.526;2022-12-08T04:35:27;4.90;91.90
33865;DHT22;20159;51.072;13.526;2022-12-08T04:37:53;4.90;91.90
33865;DHT22;20159;51.072;13.526;2022-12-08T04:40:18;4.90;91.90
33865;DHT22;20159;51.072;13.526;2022-12-08T04:42:44;4.90;92.00
33865;DHT22;20159;51.072;13.526;2022-12-08T04:45:10;4.90;92.00
33865;DHT22;20159;51.072;13.526;2022-12-08T04:47:35;4.90;92.00
33865;DHT22;20159;51.072;13.526;2022-12-08T04:50:01;4.90;92.00
33865;DHT22;20159;51.072;13.526;2022-12-08T04:52:27;4.90;92.10
33865;DHT22;20159;51.072;13.526;2022-12-08T04:54:52;4.90;92.10
33865;DHT22;20159;51.072;13.526;2022-12-08T04:57:18;4.90;92.20
33865;DHT22;20159;51.072;13.526;2022-12-08T04:59:44;4.90;92.20
33865;DHT22;20159;51.072;13.526;2022-12-08T05:02:09;4.90;92.10
33865;DHT22;20159;51.072;13.526;2022-12-08T05:04:35;4.90;92.10
33865;DHT22;20159;51.072;13.526;2022-12-08T05:07:00;4.90;92.10
33865;DHT22;20159;51.072;13.526;2022-12-08T05:09:26;4.90;92.10
33865;DHT22;20159;51.072;13.526;2022-12-08T05:11:52;4.90;92.20
33865;DHT22;20159;51.072;13.526;2022-12-08T05:14:18;4.90;92.20
33865;DHT22;20159;51.072;13.526;2022-12-08T05:16:44;4.90;92.20
33865;DHT22;20159;51.072;13.526;2022-12-08T05:19:10;6.70;92.60
33865;DHT22;20159;51.072;13.526;2022-12-08T05:21:36;4.90;92.10
33865;DHT22;20159;51.072;13.526;2022-12-08T05:24:01;4.90;92.00
33865;DHT22;20159;51.072;13.526;2022-12-08T05:26:27;4.90;92.00
33865;DHT22;20159;51.072;13.526;2022-12-08T05:28:52;4.80;92.00
33865;DHT22;20159;51.072;13.526;2022-12-08T05:31:18;4.80;92.00
33865;DHT22;20159;51.072;13.526;2022-12-08T05:33:44;4.80;92.00
33865;DHT22;20159;51.072;13.526;2022-12-08T05:36:12;4.70;92.00
33865;DHT22;20159;51.072;13.526;2022-12-08T05:38:39;4.70;92.00
33865;DHT22;20159;51.072;13.526;2022-12-08T05:41:05;4.70;92.00
33865;DHT22;20159;51.072;13.526;2022-12-08T05:43:31;4.70;92.00
33865;DHT22;20159;51.072;13.526;2022-12-08T05:45:57;4.70;92.00
33865;DHT22;20159;51.072;13.526;2022-12-08T05:48:22;4.70;92.00
33865;DHT22;20159;51.072;13.526;2022-12-08T05:50:49;4.60;92.00
33865;DHT22;20159;51.072;13.526;2022-12-08T05:53:18;4.60;92.10
33865;DHT22;20159;51.072;13.526;2022-12-08T05:55:45;4.60;92.00
33865;DHT22;20159;51.072;13.526;2022-12-08T05:58:13;4.60;92.00
33865;DHT22;20159;51.072;13.526;2022-12-08T06:00:39;4.60;92.00
33865;DHT22;20159;51.072;13.526;2022-12-08T06:03:05;4.60;92.00
33865;DHT22;20159;51.072;13.526;2022-12-08T06:05:34;4.60;92.10
33865;DHT22;20159;51.072;13.526;2022-12-08T06:08:00;4.50;92.10
33865;DHT22;20159;51.072;13.526;2022-12-08T06:10:25;4.60;92.20
33865;DHT22;20159;51.072;13.526;2022-12-08T06:12:51;4.60;92.30
33865;DHT22;20159;51.072;13.526;2022-12-08T06:15:17;4.60;92.30
33865;DHT22;20159;51.072;13.526;2022-12-08T06:17:42;4.60;92.40
33865;DHT22;20159;51.072;13.526;2022-12-08T06:20:08;4.60;92.40
33865;DHT22;20159;51.072;13.526;2022-12-08T06:22:34;4.60;92.50
33865;DHT22;20159;51.072;13.526;2022-12-08T06:25:00;4.70;92.50
33865;DHT22;20159;51.072;13.526;2022-12-08T06:27:25;4.70;92.50
33865;DHT22;20159;51.072;13.526;2022-12-08T06:29:51;4.70;92.50
33865;DHT22;20159;51.072;13.526;2022-12-08T06:32:17;4.80;92.50
33865;DHT22;20159;51.072;13.526;2022-12-08T06:34:42;4.80;92.40
33865;DHT22;20159;51.072;13.526;2022-12-08T06:37:08;4.80;92.40
33865;DHT22;20159;51.072;13.526;2022-12-08T06:39:33;4.90;92.40
33865;DHT22;20159;51.072;13.526;2022-12-08T06:41:59;4.90;92.30
33865;DHT22;20159;51.072;13.526;2022-12-08T06:44:43;4.90;92.40
33865;DHT22;20159;51.072;13.526;2022-12-08T06:47:09;5.00;92.20
33865;DHT22;20159;51.072;13.526;2022-12-08T06:49:34;4.90;92.30
33865;DHT22;20159;51.072;13.526;2022-12-08T06:52:00;4.90;92.10
33865;DHT22;20159;51.072;13.526;2022-12-08T06:54:26;5.00;92.00
33865;DHT22;20159;51.072;13.526;2022-12-08T06:56:51;5.00;92.00
33865;DHT22;20159;51.072;13.526;2022-12-08T06:59:17;5.00;92.00
33865;DHT22;20159;51.072;13.526;2022-12-08T07:01:44;5.00;92.00
33865;DHT22;20159;51.072;13.526;2022-12-08T07:04:10;5.00;92.00
33865;DHT22;20159;51.072;13.526;2022-12-08T07:06:36;5.00;92.00
33865;DHT22;20159;51.072;13.526;2022-12-08T07:09:02;5.00;92.00
33865;DHT22;20159;51.072;13.526;2022-12-08T07:11:27;5.10;92.00
33865;DHT22;20159;51.072;13.526;2022-12-08T07:13:55;5.00;92.00
33865;DHT22;20159;51.072;13.526;2022-12-08T07:16:21;4.90;91.90
33865;DHT22;20159;51.072;13.526;2022-12-08T07:18:47;5.00;91.90
33865;DHT22;20159;51.072;13.526;2022-12-08T07:21:13;5.00;91.90
33865;DHT22;20159;51.072;13.526;2022-12-08T07:23:44;4.90;91.80
33865;DHT22;20159;51.072;13.526;2022-12-08T07:26:11;4.90;91.80
33865;DHT22;20159;51.072;13.526;2022-12-08T07:28:38;4.90;91.80
33865;DHT22;20159;51.072;13.526;2022-12-08T07:31:05;4.80;91.80
33865;DHT22;20159;51.072;13.526;2022-12-08T07:33:32;4.80;91.80
33865;DHT22;20159;51.072;13.526;2022-12-08T07:35:59;4.80;91.80
33865;DHT22;20159;51.072;13.526;2022-12-08T07:38:27;4.80;91.80
33865;DHT22;20159;51.072;13.526;2022-12-08T07:40:53;4.80;91.90
33865;DHT22;20159;51.072;13.526;2022-12-08T07:43:20;4.70;91.90
33865;DHT22;20159;51.072;13.526;2022-12-08T07:45:46;4.70;91.90
33865;DHT22;20159;51.072;13.526;2022-12-08T07:48:12;4.70;91.90
33865;DHT22;20159;51.072;13.526;2022-12-08T07:50:38;5.00;92.00
33865;DHT22;20159;51.072;13.526;2022-12-08T07:53:04;4.70;92.10
33865;DHT22;20159;51.072;13.526;2022-12-08T07:55:29;4.70;92.10
33865;DHT22;20159;51.072;13.526;2022-12-08T07:57:55;4.70;92.20
33865;DHT22;20159;51.072;13.526;2022-12-08T08:00:20;4.70;92.30
33865;DHT22;20159;51.072;13.526;2022-12-08T08:02:46;4.70;92.40
33865;DHT22;20159;51.072;13.526;2022-12-08T08:05:12;4.70;92.50
33865;DHT22;20159;51.072;13.526;2022-12-08T08:07:38;4.80;92.50
33865;DHT22;20159;51.072;13.526;2022-12-08T08:10:07;4.80;92.60
33865;DHT22;20159;51.072;13.526;2022-12-08T08:12:32;4.90;92.60
33865;DHT22;20159;51.072;13.526;2022-12-08T08:14:59;4.90;92.60
33865;DHT22;20159;51.072;13.526;2022-12-08T08:17:25;5.00;92.70
33865;DHT22;20159;51.072;13.526;2022-12-08T08:19:51;5.00;92.70
33865;DHT22;20159;51.072;13.526;2022-12-08T08:22:16;5.10;92.80
33865;DHT22;20159;51.072;13.526;2022-12-08T08:24:42;5.20;92.90
33865;DHT22;20159;51.072;13.526;2022-12-08T08:27:07;5.30;92.90
33865;DHT22;20159;51.072;13.526;2022-12-08T08:29:33;5.40;93.00
33865;DHT22;20159;51.072;13.526;2022-12-08T08:31:58;5.50;93.10
33865;DHT22;20159;51.072;13.526;2022-12-08T08:34:24;5.60;92.80
33865;DHT22;20159;51.072;13.526;2022-12-08T08:36:49;5.70;92.40
33865;DHT22;20159;51.072;13.526;2022-12-08T08:39:15;5.80;92.10
33865;DHT22;20159;51.072;13.526;2022-12-08T08:41:40;5.80;91.90
33865;DHT22;20159;51.072;13.526;2022-12-08T08:44:06;5.90;91.90
33865;DHT22;20159;51.072;13.526;2022-12-08T08:46:32;5.90;91.80
33865;DHT22;20159;51.072;13.526;2022-12-08T08:48:57;5.90;91.60
33865;DHT22;20159;51.072;13.526;2022-12-08T08:51:23;6.00;91.50
33865;DHT22;20159;51.072;13.526;2022-12-08T08:53:49;6.00;91.70
33865;DHT22;20159;51.072;13.526;2022-12-08T08:56:17;6.10;92.20
33865;DHT22;20159;51.072;13.526;2022-12-08T08:58:47;6.30;93.10
33865;DHT22;20159;51.072;13.526;2022-12-08T09:01:19;6.60;93.80
33865;DHT22;20159;51.072;13.526;2022-12-08T09:03:46;7.00;94.30
33865;DHT22;20159;51.072;13.526;2022-12-08T09:06:13;7.50;94.50
33865;DHT22;20159;51.072;13.526;2022-12-08T09:08:40;7.90;94.10
33865;DHT22;20159;51.072;13.526;2022-12-08T09:11:05;8.40;94.70
33865;DHT22;20159;51.072;13.526;2022-12-08T09:13:31;8.90;94.40
33865;DHT22;20159;51.072;13.526;2022-12-08T09:15:56;9.40;94.40
33865;DHT22;20159;51.072;13.526;2022-12-08T09:18:22;9.90;94.60
33865;DHT22;20159;51.072;13.526;2022-12-08T09:20:47;10.40;93.50
33865;DHT22;20159;51.072;13.526;2022-12-08T09:23:13;10.80;92.10
33865;DHT22;20159;51.072;13.526;2022-12-08T09:25:43;11.20;91.60
33865;DHT22;20159;51.072;13.526;2022-12-08T09:28:08;11.60;90.00
33865;DHT22;20159;51.072;13.526;2022-12-08T09:30:34;11.90;89.50
33865;DHT22;20159;51.072;13.526;2022-12-08T09:32:59;12.20;88.00
33865;DHT22;20159;51.072;13.526;2022-12-08T09:35:25;12.50;86.50
33865;DHT22;20159;51.072;13.526;2022-12-08T09:37:50;12.70;85.80
33865;DHT22;20159;51.072;13.526;2022-12-08T09:40:18;12.90;84.50
33865;DHT22;20159;51.072;13.526;2022-12-08T09:42:59;13.10;81.70
33865;DHT22;20159;51.072;13.526;2022-12-08T09:45:32;13.20;80.40
33865;DHT22;20159;51.072;13.526;2022-12-08T09:48:15;13.30;80.10
33865;DHT22;20159;51.072;13.526;2022-12-08T09:50:52;13.30;76.80
33865;DHT22;20159;51.072;13.526;2022-12-08T09:58:55;13.50;77.40
33865;DHT22;20159;51.072;13.526;2022-12-08T10:01:27;13.50;74.10
33865;DHT22;20159;51.072;13.526;2022-12-08T10:03:53;13.40;73.60
33865;DHT22;20159;51.072;13.526;2022-12-08T10:06:44;13.30;74.20
33865;DHT22;20159;51.072;13.526;2022-12-08T10:17:26;12.00;70.00
33865;DHT22;20159;51.072;13.526;2022-12-08T10:19:58;11.60;70.50
33865;DHT22;20159;51.072;13.526;2022-12-08T10:22:32;11.30;70.90
33865;DHT22;20159;51.072;13.526;2022-12-08T10:25:18;11.00;71.50
33865;DHT22;20159;51.072;13.526;2022-12-08T10:27:46;10.60;71.40
33865;DHT22;20159;51.072;13.526;2022-12-08T10:30:14;10.30;71.70
33865;DHT22;20159;51.072;13.526;2022-12-08T10:32:44;10.10;72.20
33865;DHT22;20159;51.072;13.526;2022-12-08T10:35:12;9.80;73.00
33865;DHT22;20159;51.072;13.526;2022-12-08T10:37:38;9.50;73.00
33865;DHT22;20159;51.072;13.526;2022-12-08T10:40:11;9.40;74.60
33865;DHT22;20159;51.072;13.526;2022-12-08T10:42:44;9.30;76.40
33865;DHT22;20159;51.072;13.526;2022-12-08T10:45:32;9.30;78.00
33865;DHT22;20159;51.072;13.526;2022-12-08T10:48:17;9.30;78.20
33865;DHT22;20159;51.072;13.526;2022-12-08T10:50:46;9.40;78.10
33865;DHT22;20159;51.072;13.526;2022-12-08T10:53:23;9.40;78.00
33865;DHT22;20159;51.072;13.526;2022-12-08T10:55:50;9.50;77.80
33865;DHT22;20159;51.072;13.526;2022-12-08T10:58:42;9.60;77.90
33865;DHT22;20159;51.072;13.526;2022-12-08T11:01:23;9.70;77.10
33865;DHT22;20159;51.072;13.526;2022-12-08T11:03:50;9.60;75.40
33865;DHT22;20159;51.072;13.526;2022-12-08T11:06:33;9.60;75.10
33865;DHT22;20159;51.072;13.526;2022-12-08T11:09:08;8.80;74.90
33865;DHT22;20159;51.072;13.526;2022-12-08T11:11:47;9.50;74.50
33865;DHT22;20159;51.072;13.526;2022-12-08T11:14:26;9.40;75.00
33865;DHT22;20159;51.072;13.526;2022-12-08T11:17:01;9.30;74.00
33865;DHT22;20159;51.072;13.526;2022-12-08T11:19:28;9.20;74.80
33865;DHT22;20159;51.072;13.526;2022-12-08T11:21:54;9.20;75.60
33865;DHT22;20159;51.072;13.526;2022-12-08T11:24:25;9.10;75.00
33865;DHT22;20159;51.072;13.526;2022-12-08T11:27:01;9.30;75.30
33865;DHT22;20159;51.072;13.526;2022-12-08T11:29:30;9.00;74.90
33865;DHT22;20159;51.072;13.526;2022-12-08T11:31:59;8.90;75.00
33865;DHT22;20159;51.072;13.526;2022-12-08T11:34:36;8.80;74.90
33865;DHT22;20159;51.072;13.526;2022-12-08T11:37:04;8.70;75.70
33865;DHT22;20159;51.072;13.526;2022-12-08T11:39:33;8.60;75.20
33865;DHT22;20159;51.072;13.526;2022-12-08T11:42:02;8.50;74.60
33865;DHT22;20159;51.072;13.526;2022-12-08T11:44:43;8.50;75.30
33865;DHT22;20159;51.072;13.526;2022-12-08T11:49:42;8.40;75.50
33865;DHT22;20159;51.072;13.526;2022-12-08T11:52:22;8.30;76.00
33865;DHT22;20159;51.072;13.526;2022-12-08T11:57:37;8.20;75.90
33865;DHT22;20159;51.072;13.526;2022-12-08T12:00:16;8.20;76.90
33865;DHT22;20159;51.072;13.526;2022-12-08T12:02:47;8.20;78.30
33865;DHT22;20159;51.072;13.526;2022-12-08T12:08:08;8.50;79.50
33865;DHT22;20159;51.072;13.526;2022-12-08T12:13:54;8.90;77.50
33865;DHT22;20159;51.072;13.526;2022-12-08T12:16:56;9.00;77.60
33865;DHT22;20159;51.072;13.526;2022-12-08T12:19:23;9.20;76.60
33865;DHT22;20159;51.072;13.526;2022-12-08T12:21:53;9.40;77.40
33865;DHT22;20159;51.072;13.526;2022-12-08T12:24:30;9.50;77.50
33865;DHT22;20159;51.072;13.526;2022-12-08T12:27:37;9.60;75.70
33865;DHT22;20159;51.072;13.526;2022-12-08T12:30:07;9.60;76.10
33865;DHT22;20159;51.072;13.526;2022-12-08T12:32:47;9.70;74.30
33865;DHT22;20159;51.072;13.526;2022-12-08T12:35:25;9.70;73.70
33865;DHT22;20159;51.072;13.526;2022-12-08T12:37:56;9.50;73.50
33865;DHT22;20159;51.072;13.526;2022-12-08T12:40:25;9.40;73.20
33865;DHT22;20159;51.072;13.526;2022-12-08T12:56:02;9.00;74.10
33865;DHT22;20159;51.072;13.526;2022-12-08T13:01:35;8.90;75.00
33865;DHT22;20159;51.072;13.526;2022-12-08T13:04:06;8.80;75.40
33865;DHT22;20159;51.072;13.526;2022-12-08T13:06:44;8.80;75.50
33865;DHT22;20159;51.072;13.526;2022-12-08T13:09:29;8.70;75.20
33865;DHT22;20159;51.072;13.526;2022-12-08T13:11:58;8.70;75.20
33865;DHT22;20159;51.072;13.526;2022-12-08T13:14:30;8.70;75.50
33865;DHT22;20159;51.072;13.526;2022-12-08T13:16:58;8.60;75.80
33865;DHT22;20159;51.072;13.526;2022-12-08T13:19:24;8.60;75.80
33865;DHT22;20159;51.072;13.526;2022-12-08T13:21:50;8.50;75.60
33865;DHT22;20159;51.072;13.526;2022-12-08T13:24:31;8.40;75.20
33865;DHT22;20159;51.072;13.526;2022-12-08T13:29:29;8.30;75.70
33865;DHT22;20159;51.072;13.526;2022-12-08T13:31:58;8.30;75.20
33865;DHT22;20159;51.072;13.526;2022-12-08T13:34:43;8.30;75.10
33865;DHT22;20159;51.072;13.526;2022-12-08T13:47:29;8.40;75.70
33865;DHT22;20159;51.072;13.526;2022-12-08T13:50:11;8.40;75.40
33865;DHT22;20159;51.072;13.526;2022-12-08T13:52:45;8.40;75.50
33865;DHT22;20159;51.072;13.526;2022-12-08T13:55:20;8.40;75.30
33865;DHT22;20159;51.072;13.526;2022-12-08T13:57:48;8.40;75.70
33865;DHT22;20159;51.072;13.526;2022-12-08T14:00:21;8.40;76.00
33865;DHT22;20159;51.072;13.526;2022-12-08T14:02:51;11.10;76.90
33865;DHT22;20159;51.072;13.526;2022-12-08T14:05:20;8.30;75.40
33865;DHT22;20159;51.072;13.526;2022-12-08T14:07:48;8.30;75.10
33865;DHT22;20159;51.072;13.526;2022-12-08T14:10:19;8.20;75.10
33865;DHT22;20159;51.072;13.526;2022-12-08T14:12:53;8.10;75.30
33865;DHT22;20159;51.072;13.526;2022-12-08T14:15:20;8.00;75.50
33865;DHT22;20159;51.072;13.526;2022-12-08T14:17:54;7.90;75.60
33865;DHT22;20159;51.072;13.526;2022-12-08T14:20:34;7.90;74.80
33865;DHT22;20159;51.072;13.526;2022-12-08T14:23:06;7.80;75.60
33865;DHT22;20159;51.072;13.526;2022-12-08T14:25:34;7.70;75.90
33865;DHT22;20159;51.072;13.526;2022-12-08T14:28:01;7.60;76.20
33865;DHT22;20159;51.072;13.526;2022-12-08T14:30:31;7.60;76.30
33865;DHT22;20159;51.072;13.526;2022-12-08T14:32:58;7.50;76.50
33865;DHT22;20159;51.072;13.526;2022-12-08T14:35:33;7.40;77.00
33865;DHT22;20159;51.072;13.526;2022-12-08T14:38:00;7.30;77.10
33865;DHT22;20159;51.072;13.526;2022-12-08T14:40:37;7.30;77.10
33865;DHT22;20159;51.072;13.526;2022-12-08T14:45:34;7.10;76.60
33865;DHT22;20159;51.072;13.526;2022-12-08T14:53:55;6.80;77.30
33865;DHT22;20159;51.072;13.526;2022-12-08T14:56:35;6.60;77.40
33865;DHT22;20159;51.072;13.526;2022-12-08T14:59:14;6.50;77.80
33865;DHT22;20159;51.072;13.526;2022-12-08T15:01:41;6.40;78.10
33865;DHT22;20159;51.072;13.526;2022-12-08T15:07:09;6.20;78.30
33865;DHT22;20159;51.072;13.526;2022-12-08T15:09:42;6.00;78.70
33865;DHT22;20159;51.072;13.526;2022-12-08T15:14:40;5.80;79.00
33865;DHT22;20159;51.072;13.526;2022-12-08T15:17:41;5.70;79.30
33865;DHT22;20159;51.072;13.526;2022-12-08T15:23:03;5.40;80.50
33865;DHT22;20159;51.072;13.526;2022-12-08T15:25:30;5.40;80.60
33865;DHT22;20159;51.072;13.526;2022-12-08T15:27:56;5.30;81.20
33865;DHT22;20159;51.072;13.526;2022-12-08T15:30:22;5.20;81.50
33865;DHT22;20159;51.072;13.526;2022-12-08T15:32:51;5.20;81.60
33865;DHT22;20159;51.072;13.526;2022-12-08T15:35:17;5.20;81.80
33865;DHT22;20159;51.072;13.526;2022-12-08T15:37:42;5.20;82.00
33865;DHT22;20159;51.072;13.526;2022-12-08T15:40:15;5.10;82.10
33865;DHT22;20159;51.072;13.526;2022-12-08T15:42:41;5.10;82.40
33865;DHT22;20159;51.072;13.526;2022-12-08T15:45:11;5.10;82.50
33865;DHT22;20159;51.072;13.526;2022-12-08T15:47:38;5.10;82.70
33865;DHT22;20159;51.072;13.526;2022-12-08T15:50:04;5.10;82.80
33865;DHT22;20159;51.072;13.526;2022-12-08T15:52:31;5.10;82.90
33865;DHT22;20159;51.072;13.526;2022-12-08T15:54:56;5.10;82.80
33865;DHT22;20159;51.072;13.526;2022-12-08T15:57:24;5.10;82.60
33865;DHT22;20159;51.072;13.526;2022-12-08T15:59:50;5.10;82.70
33865;DHT22;20159;51.072;13.526;2022-12-08T16:02:16;5.10;82.90
33865;DHT22;20159;51.072;13.526;2022-12-08T16:04:41;5.00;82.90
33865;DHT22;20159;51.072;13.526;2022-12-08T16:07:27;5.00;83.10
33865;DHT22;20159;51.072;13.526;2022-12-08T16:09:53;5.00;83.40
33865;DHT22;20159;51.072;13.526;2022-12-08T16:12:21;5.00;83.40
33865;DHT22;20159;51.072;13.526;2022-12-08T16:15:06;5.00;83.70
33865;DHT22;20159;51.072;13.526;2022-12-08T16:17:32;5.00;83.70
33865;DHT22;20159;51.072;13.526;2022-12-08T16:19:58;5.10;84.10
33865;DHT22;20159;51.072;13.526;2022-12-08T16:22:26;5.10;84.20
33865;DHT22;20159;51.072;13.526;2022-12-08T16:24:52;5.10;84.20
33865;DHT22;20159;51.072;13.526;2022-12-08T16:27:26;5.10;84.30
33865;DHT22;20159;51.072;13.526;2022-12-08T16:29:53;5.20;84.30
33865;DHT22;20159;51.072;13.526;2022-12-08T16:32:19;5.20;84.30
33865;DHT22;20159;51.072;13.526;2022-12-08T16:34:45;5.20;84.10
33865;DHT22;20159;51.072;13.526;2022-12-08T16:37:21;5.30;84.00
33865;DHT22;20159;51.072;13.526;2022-12-08T16:39:48;5.30;83.90
33865;DHT22;20159;51.072;13.526;2022-12-08T16:42:33;6.10;84.40
33865;DHT22;20159;51.072;13.526;2022-12-08T16:45:12;5.40;84.30
33865;DHT22;20159;51.072;13.526;2022-12-08T16:47:43;5.50;84.00
33865;DHT22;20159;51.072;13.526;2022-12-08T16:50:23;5.50;83.70
33865;DHT22;20159;51.072;13.526;2022-12-08T16:52:55;5.60;83.50
33865;DHT22;20159;51.072;13.526;2022-12-08T16:55:21;5.60;83.50
33865;DHT22;20159;51.072;13.526;2022-12-08T16:57:47;5.70;83.60
33865;DHT22;20159;51.072;13.526;2022-12-08T17:00:15;5.70;83.70
33865;DHT22;20159;51.072;13.526;2022-12-08T17:02:41;5.70;83.50
33865;DHT22;20159;51.072;13.526;2022-12-08T17:05:07;5.70;83.60
33865;DHT22;20159;51.072;13.526;2022-12-08T17:07:34;5.80;83.50
33865;DHT22;20159;51.072;13.526;2022-12-08T17:10:03;5.80;83.60
33865;DHT22;20159;51.072;13.526;2022-12-08T17:12:28;5.80;83.40
33865;DHT22;20159;51.072;13.526;2022-12-08T17:14:54;5.80;83.20
33865;DHT22;20159;51.072;13.526;2022-12-08T17:17:21;5.80;83.00
33865;DHT22;20159;51.072;13.526;2022-12-08T17:19:55;5.80;82.80
33865;DHT22;20159;51.072;13.526;2022-12-08T17:22:25;5.80;82.50
33865;DHT22;20159;51.072;13.526;2022-12-08T17:24:51;5.80;83.20